Time;durP1;ratioP1;P1;durP2;ratioP2;P2;SDS_P1;SDS_P2;PMS_P1;PMS_P2;Temp;Humidity;BMP_temperature;BMP_pressure;BME280_temperature;BME280_humidity;BME280_pressure;Samples;Min_cycle;Max_cycle;Signal;HPM_P1;HPM_P2
2021/08/21 00:00:27;;;;;;;9.98;6.35;;;29.10;99.90;;;;;;4155575;28;20605;-67
2021/08/21 00:02:33;;;;;;;11.23;6.95;;;29.10;99.90;;;;;;4154611;28;20046;-70
2021/08/21 00:04:38;;;;;;;14.77;6.53;;;29.20;99.90;;;;;;4135340;28;20322;-67
2021/08/21 00:06:43;;;;;;;9.50;6.28;;;29.10;99.90;;;;;;4156802;28;20093;-66
2021/08/21 00:08:49;;;;;;;9.32;5.72;;;29.10;99.90;;;;;;4146758;28;20050;-65
2021/08/21 00:11:00;;;;;;;10.52;6.07;;;29.20;99.90;;;;;;4148361;28;20049;-66
2021/08/21 00:13:04;;;;;;;12.55;7.10;;;29.20;99.90;;;;;;4138113;28;20516;-67
2021/08/21 00:15:12;;;;;;;11.55;6.10;;;29.30;99.90;;;;;;4155840;28;20821;-66
2021/08/21 00:17:17;;;;;;;12.57;6.28;;;29.40;99.90;;;;;;4148926;28;20054;-67
2021/08/21 00:19:23;;;;;;;8.35;5.63;;;29.40;99.90;;;;;;4145777;28;20073;-66
2021/08/21 00:21:28;;;;;;;11.40;5.93;;;29.40;99.90;;;;;;4159064;28;20450;-66
2021/08/21 00:23:33;;;;;;;8.55;5.82;;;29.40;99.90;;;;;;4155710;28;20479;-67
2021/08/21 00:25:38;;;;;;;10.75;6.68;;;29.50;99.90;;;;;;4155799;28;20048;-67
2021/08/21 00:27:42;;;;;;;9.15;5.80;;;29.50;99.90;;;;;;4157579;28;20038;-66
2021/08/21 00:29:47;;;;;;;11.98;6.70;;;29.60;99.90;;;;;;4155647;28;20053;-67
2021/08/21 00:31:52;;;;;;;8.95;6.13;;;29.70;99.90;;;;;;4160292;28;20091;-66
2021/08/21 00:33:59;;;;;;;11.77;6.43;;;29.70;99.90;;;;;;4158327;28;20146;-67
2021/08/21 00:36:04;;;;;;;9.88;5.28;;;29.80;99.90;;;;;;4155871;28;20096;-67
2021/08/21 00:38:10;;;;;;;8.55;5.07;;;29.80;99.90;;;;;;4158962;28;20053;-68
2021/08/21 00:40:15;;;;;;;8.07;5.22;;;29.80;99.90;;;;;;4153364;28;20045;-66
2021/08/21 00:42:21;;;;;;;10.35;5.80;;;29.90;99.90;;;;;;4150579;28;20437;-66
2021/08/21 00:44:25;;;;;;;10.10;5.90;;;29.90;99.70;;;;;;4157630;28;20052;-67
2021/08/21 00:46:31;;;;;;;7.43;4.72;;;29.90;99.50;;;;;;4164232;28;20132;-66
2021/08/21 00:48:36;;;;;;;7.85;5.10;;;30.00;99.30;;;;;;4156300;28;20072;-66
2021/08/21 00:50:42;;;;;;;9.32;4.68;;;30.10;99.00;;;;;;4151605;28;20095;-65
2021/08/21 00:52:47;;;;;;;9.05;4.88;;;30.10;98.80;;;;;;4158021;28;20053;-66
2021/08/21 00:54:52;;;;;;;9.95;4.97;;;30.10;98.80;;;;;;4155128;28;20446;-66
2021/08/21 00:57:01;;;;;;;6.63;4.75;;;30.20;98.80;;;;;;4150373;28;20045;-68
2021/08/21 00:59:06;;;;;;;7.95;4.90;;;30.30;98.20;;;;;;4159372;28;20099;-65
2021/08/21 01:01:11;;;;;;;9.50;5.25;;;30.10;97.70;;;;;;4158522;28;20061;-67
2021/08/21 01:03:16;;;;;;;7.72;5.20;;;30.10;98.00;;;;;;4156467;28;20054;-67
2021/08/21 01:05:21;;;;;;;8.73;4.88;;;30.10;98.10;;;;;;4157166;28;20045;-68
2021/08/21 01:07:33;;;;;;;7.43;4.18;;;30.20;97.80;;;;;;4158234;28;20080;-67
2021/08/21 01:09:40;;;;;;;6.50;4.28;;;30.10;97.70;;;;;;4158758;28;20156;-67
2021/08/21 01:11:45;;;;;;;8.35;4.50;;;30.10;97.10;;;;;;4153323;28;20149;-67
2021/08/21 01:13:52;;;;;;;8.18;4.50;;;30.10;97.30;;;;;;4154873;28;20123;-67
2021/08/21 01:15:59;;;;;;;7.60;4.05;;;30.20;97.20;;;;;;4152193;28;20516;-67
2021/08/21 01:18:07;;;;;;;8.95;5.03;;;30.40;96.70;;;;;;4154295;28;20515;-69
2021/08/21 01:20:14;;;;;;;7.32;4.30;;;30.50;96.50;;;;;;4154965;28;20045;-67
2021/08/21 01:22:25;;;;;;;8.13;4.57;;;30.60;96.20;;;;;;4158599;28;20056;-65
2021/08/21 01:24:47;;;;;;;8.98;4.50;;;30.70;95.90;;;;;;4145566;28;20129;-66
2021/08/21 01:26:56;;;;;;;7.70;4.55;;;30.70;95.80;;;;;;4158917;28;20045;-68
2021/08/21 01:29:13;;;;;;;7.50;4.50;;;30.80;95.60;;;;;;4160991;28;20128;-67
2021/08/21 01:31:37;;;;;;;6.95;4.45;;;30.90;95.30;;;;;;4153818;28;20092;-67
2021/08/21 01:33:43;;;;;;;10.70;4.80;;;30.90;95.50;;;;;;4161755;28;20037;-67
2021/08/21 01:35:53;;;;;;;9.10;3.97;;;31.00;95.50;;;;;;4152503;28;20579;-67
2021/08/21 01:38:04;;;;;;;7.68;4.38;;;31.10;95.40;;;;;;4156763;28;20042;-67
2021/08/21 01:40:21;;;;;;;9.68;4.78;;;31.10;94.80;;;;;;4153983;28;20045;-67
2021/08/21 01:42:28;;;;;;;7.95;4.65;;;31.10;94.40;;;;;;4176858;28;20384;-67
2021/08/21 01:44:34;;;;;;;15.13;4.35;;;31.10;94.50;;;;;;4157200;28;20065;-67
2021/08/21 01:46:40;;;;;;;10.38;5.07;;;31.20;94.70;;;;;;4168430;28;20041;-68
2021/08/21 01:48:45;;;;;;;12.38;4.50;;;31.20;94.70;;;;;;4156716;28;20495;-67
2021/08/21 01:51:12;;;;;;;9.15;4.35;;;31.30;94.60;;;;;;4155313;28;20128;-67
2021/08/21 01:53:17;;;;;;;8.18;4.25;;;31.40;94.70;;;;;;4158726;28;20065;-68
2021/08/21 01:55:42;;;;;;;7.78;4.32;;;31.40;94.60;;;;;;4151230;28;20033;-66
2021/08/21 01:57:51;;;;;;;8.85;4.68;;;31.50;94.50;;;;;;4173499;28;20045;-66
2021/08/21 02:00:10;;;;;;;8.68;4.30;;;31.50;94.40;;;;;;4152433;28;20038;-67
2021/08/21 02:02:31;;;;;;;6.07;4.27;;;31.60;94.40;;;;;;4146191;28;20049;-66
2021/08/21 02:05:01;;;;;;;8.45;4.25;;;31.60;94.40;;;;;;4158340;28;20515;-67
2021/08/21 02:07:07;;;;;;;7.80;4.18;;;31.70;94.10;;;;;;4155060;28;20046;-68
2021/08/21 02:09:13;;;;;;;10.20;3.92;;;31.80;93.90;;;;;;4155590;28;20048;-68
2021/08/21 02:11:18;;;;;;;7.47;4.13;;;31.80;93.70;;;;;;4161319;28;20049;-67
2021/08/21 02:13:27;;;;;;;6.07;4.25;;;31.80;93.80;;;;;;4155104;28;20049;-67
2021/08/21 02:15:39;;;;;;;6.38;4.40;;;31.80;93.80;;;;;;4159729;28;20073;-67
2021/08/21 02:17:44;;;;;;;11.18;4.55;;;31.90;93.80;;;;;;4161132;28;20057;-67
2021/08/21 02:20:11;;;;;;;7.50;4.90;;;31.90;93.60;;;;;;4155055;28;20054;-68
2021/08/21 02:22:34;;;;;;;10.30;4.57;;;32.00;93.60;;;;;;4159291;28;20045;-67
2021/08/21 02:24:41;;;;;;;5.15;3.58;;;32.00;93.40;;;;;;4145568;28;20045;-67
2021/08/21 02:26:46;;;;;;;8.70;3.95;;;32.10;93.10;;;;;;4155678;28;20041;-67
2021/08/21 02:28:56;;;;;;;7.22;3.90;;;32.10;93.20;;;;;;4169659;28;20048;-68
2021/08/21 02:31:05;;;;;;;6.13;3.60;;;32.20;92.50;;;;;;4145672;28;20056;-68
2021/08/21 02:33:09;;;;;;;6.28;3.65;;;32.20;92.60;;;;;;4174830;28;20059;-67
2021/08/21 02:35:15;;;;;;;4.72;3.35;;;32.20;92.50;;;;;;4155949;28;20089;-67
2021/08/21 02:37:26;;;;;;;7.40;3.95;;;32.30;92.50;;;;;;4149131;28;20412;-68
2021/08/21 02:39:30;;;;;;;7.35;4.75;;;32.30;93.00;;;;;;4159397;28;20197;-68
2021/08/21 02:41:37;;;;;;;5.63;3.70;;;32.40;93.20;;;;;;4162189;28;20072;-67
2021/08/21 02:43:42;;;;;;;7.40;4.38;;;32.40;93.00;;;;;;4148473;28;20073;-68
2021/08/21 02:45:50;;;;;;;6.13;3.80;;;32.30;92.30;;;;;;4160134;28;20041;-68
2021/08/21 02:47:56;;;;;;;6.57;3.95;;;32.30;91.90;;;;;;4153469;28;20081;-67
2021/08/21 02:50:01;;;;;;;5.90;3.75;;;32.40;92.40;;;;;;4161738;28;20045;-68
2021/08/21 02:52:06;;;;;;;6.68;3.88;;;32.50;92.00;;;;;;4157416;28;20053;-66
2021/08/21 02:54:12;;;;;;;6.25;4.15;;;32.60;91.60;;;;;;4174762;28;20496;-68
2021/08/21 02:56:19;;;;;;;6.07;4.00;;;32.70;91.30;;;;;;4179681;28;20388;-67
2021/08/21 02:58:24;;;;;;;11.80;4.32;;;32.70;91.40;;;;;;4162990;28;20157;-67
2021/08/21 03:00:29;;;;;;;5.22;4.30;;;32.80;91.10;;;;;;4152341;28;20053;-68
2021/08/21 03:02:37;;;;;;;7.60;4.47;;;32.90;90.80;;;;;;4165066;28;20046;-67
2021/08/21 03:04:44;;;;;;;8.75;4.63;;;32.90;90.90;;;;;;4162482;28;20052;-67
2021/08/21 03:07:02;;;;;;;6.82;4.47;;;33.00;91.00;;;;;;4155803;28;20042;-67
2021/08/21 03:09:19;;;;;;;5.68;3.58;;;33.00;91.00;;;;;;4152497;28;20053;-67
2021/08/21 03:11:24;;;;;;;6.68;3.95;;;33.10;90.40;;;;;;4161905;28;20427;-69
2021/08/21 03:13:42;;;;;;;5.38;4.07;;;33.10;90.20;;;;;;4155604;28;20516;-66
2021/08/21 03:15:46;;;;;;;6.03;3.95;;;33.20;90.10;;;;;;4155275;28;20443;-67
2021/08/21 03:17:52;;;;;;;7.47;3.92;;;33.20;90.20;;;;;;4161807;28;20045;-69
2021/08/21 03:19:58;;;;;;;6.38;3.80;;;33.20;90.00;;;;;;4165433;28;20507;-68
2021/08/21 03:22:08;;;;;;;7.43;4.00;;;33.30;90.00;;;;;;4165127;28;20107;-68
2021/08/21 03:24:17;;;;;;;7.57;3.67;;;33.30;90.00;;;;;;4148219;28;20042;-67
2021/08/21 03:26:28;;;;;;;5.10;3.47;;;33.40;90.10;;;;;;4163748;28;20049;-68
2021/08/21 03:28:35;;;;;;;5.40;3.92;;;33.50;89.90;;;;;;4164720;28;20128;-68
2021/08/21 03:30:41;;;;;;;5.80;4.00;;;33.60;89.90;;;;;;4162509;28;20294;-67
2021/08/21 03:32:55;;;;;;;8.32;4.35;;;33.70;89.50;;;;;;4163477;28;20054;-68
2021/08/21 03:35:00;;;;;;;9.35;3.90;;;33.70;89.70;;;;;;4165545;28;20080;-69
2021/08/21 03:37:05;;;;;;;6.85;4.10;;;33.80;89.30;;;;;;4150058;28;20471;-68
2021/08/21 03:39:16;;;;;;;8.07;4.22;;;33.80;88.50;;;;;;4165521;28;20436;-68
2021/08/21 03:41:27;;;;;;;7.82;3.60;;;33.80;88.10;;;;;;4165073;28;20053;-69
2021/08/21 03:43:41;;;;;;;6.68;3.40;;;33.80;87.90;;;;;;4165778;28;20042;-67
2021/08/21 03:45:46;;;;;;;7.40;3.58;;;33.90;87.10;;;;;;4165836;28;20077;-68
2021/08/21 03:47:53;;;;;;;6.47;3.85;;;33.90;87.00;;;;;;4164018;28;20222;-68
2021/08/21 03:50:00;;;;;;;6.00;3.50;;;34.00;86.20;;;;;;4150098;28;20058;-68
2021/08/21 03:52:09;;;;;;;7.72;4.13;;;34.10;86.20;;;;;;4164197;28;20088;-69
2021/08/21 03:54:14;;;;;;;8.10;4.00;;;34.00;85.70;;;;;;4164288;28;20053;-69
2021/08/21 03:56:20;;;;;;;6.57;3.13;;;34.00;86.90;;;;;;4170718;28;20140;-70
2021/08/21 03:58:30;;;;;;;4.90;3.30;;;34.10;84.80;;;;;;4155584;28;20046;-68
2021/08/21 04:00:37;;;;;;;5.18;3.53;;;34.20;84.90;;;;;;4154359;28;20076;-68
2021/08/21 04:02:48;;;;;;;4.68;3.20;;;34.10;84.70;;;;;;4161839;28;20399;-69
2021/08/21 04:05:01;;;;;;;6.40;3.03;;;34.20;84.30;;;;;;4163564;28;20045;-69
2021/08/21 04:07:08;;;;;;;5.13;3.53;;;34.20;84.50;;;;;;4180146;28;20048;-68
2021/08/21 04:09:14;;;;;;;5.80;4.18;;;34.20;84.20;;;;;;4155466;28;20719;-68
2021/08/21 04:11:20;;;;;;;6.28;3.85;;;34.10;84.20;;;;;;4160610;28;20049;-67
2021/08/21 04:13:42;;;;;;;6.10;3.35;;;34.00;84.10;;;;;;4160199;28;20132;-68
2021/08/21 04:15:46;;;;;;;8.73;3.53;;;34.20;86.00;;;;;;4161001;28;20569;-69
2021/08/21 04:17:52;;;;;;;4.22;3.05;;;34.40;84.60;;;;;;4163194;28;20322;-68
2021/08/21 04:20:03;;;;;;;4.78;3.13;;;34.60;84.70;;;;;;4162854;28;20059;-69
2021/08/21 04:22:11;;;;;;;4.35;2.90;;;34.70;84.00;;;;;;4162851;28;20041;-68
2021/08/21 04:24:23;;;;;;;6.75;4.32;;;34.80;83.70;;;;;;4156393;28;20050;-68
2021/08/21 04:26:34;;;;;;;4.85;3.15;;;34.90;83.80;;;;;;4153381;28;20046;-68
2021/08/21 04:28:40;;;;;;;6.68;3.45;;;34.90;82.20;;;;;;4162346;28;20052;-68
2021/08/21 04:30:46;;;;;;;4.43;3.50;;;34.80;82.20;;;;;;4162627;28;20045;-68
2021/08/21 04:32:50;;;;;;;5.88;3.08;;;34.80;82.90;;;;;;4162203;28;20049;-68
2021/08/21 04:34:58;;;;;;;7.47;3.47;;;34.70;83.30;;;;;;4176602;28;20053;-69
2021/08/21 04:37:05;;;;;;;6.85;3.55;;;34.60;83.80;;;;;;4153517;28;20132;-68
2021/08/21 04:39:13;;;;;;;4.47;3.40;;;34.70;84.00;;;;;;4161643;28;20057;-68
2021/08/21 04:41:18;;;;;;;4.80;3.33;;;34.60;82.90;;;;;;4162262;28;20064;-67
2021/08/21 04:43:23;;;;;;;5.55;3.55;;;34.50;82.70;;;;;;4179804;28;20045;-68
2021/08/21 04:45:28;;;;;;;5.28;3.50;;;34.50;83.10;;;;;;4161943;28;20034;-68
2021/08/21 04:47:33;;;;;;;4.80;2.80;;;34.40;82.70;;;;;;4161590;28;20103;-68
2021/08/21 04:49:38;;;;;;;5.03;2.92;;;34.50;82.70;;;;;;4160324;28;20109;-68
2021/08/21 04:51:43;;;;;;;4.00;2.83;;;34.60;83.20;;;;;;4156131;28;20064;-68
2021/08/21 04:53:51;;;;;;;4.40;2.97;;;34.60;82.00;;;;;;4159373;28;20056;-69
2021/08/21 04:55:56;;;;;;;6.22;3.78;;;34.60;81.30;;;;;;4159526;28;20056;-68
2021/08/21 04:58:01;;;;;;;5.00;2.90;;;34.50;81.70;;;;;;4161710;28;20060;-68
2021/08/21 05:00:07;;;;;;;4.80;3.00;;;34.50;82.20;;;;;;4161442;28;20432;-68
2021/08/21 05:02:33;;;;;;;4.28;3.00;;;34.40;81.90;;;;;;4157696;28;20515;-70
2021/08/21 05:04:38;;;;;;;5.60;3.15;;;34.40;82.40;;;;;;4165049;28;20049;-75
2021/08/21 05:06:43;;;;;;;6.85;3.25;;;34.40;82.40;;;;;;4164894;28;20046;-70
2021/08/21 05:08:48;;;;;;;9.43;3.20;;;34.50;81.60;;;;;;4169775;28;20056;-71
2021/08/21 05:10:55;;;;;;;5.88;3.30;;;34.70;82.40;;;;;;4161030;28;20045;-74
2021/08/21 05:13:11;;;;;;;7.60;3.55;;;34.80;82.70;;;;;;4165871;28;20053;-73
2021/08/21 05:15:28;;;;;;;4.60;3.28;;;34.60;81.70;;;;;;4165114;28;20081;-72
2021/08/21 05:18:02;;;;;;;6.63;3.00;;;34.80;82.00;;;;;;4159593;28;20042;-71
2021/08/21 05:20:51;;;;;;;4.70;3.40;;;34.80;81.30;;;;;;4164436;28;20067;-70
2021/08/21 05:25:13;;;;;;;3.83;3.00;;;34.80;81.60;;;;;;4165222;28;20041;-70
2021/08/21 05:27:23;;;;;;;5.38;2.60;;;35.00;80.40;;;;;;4158905;28;20056;-67
2021/08/21 05:29:29;;;;;;;3.83;3.03;;;35.10;79.90;;;;;;4155661;28;20053;-68
2021/08/21 05:31:33;;;;;;;4.47;2.85;;;35.10;78.60;;;;;;4159973;28;20128;-66
2021/08/21 05:33:38;;;;;;;7.18;2.97;;;35.20;78.60;;;;;;4159353;28;20045;-69
2021/08/21 05:35:43;;;;;;;4.20;2.80;;;35.20;79.80;;;;;;4156012;28;20080;-68
2021/08/21 05:37:47;;;;;;;5.72;3.38;;;35.20;79.80;;;;;;4161615;28;20440;-70
2021/08/21 05:39:53;;;;;;;4.72;3.22;;;35.00;80.00;;;;;;4157278;28;20049;-69
2021/08/21 05:41:58;;;;;;;4.40;3.00;;;34.80;79.70;;;;;;4164872;28;20053;-71
2021/08/21 05:44:03;;;;;;;6.72;3.17;;;34.70;79.80;;;;;;4162254;28;20046;-70
2021/08/21 05:46:08;;;;;;;6.70;3.10;;;34.80;80.30;;;;;;4164832;28;20050;-69
2021/08/21 05:48:14;;;;;;;4.35;3.08;;;34.80;80.30;;;;;;4164054;28;20278;-68
2021/08/21 05:50:21;;;;;;;4.43;3.00;;;34.80;80.00;;;;;;4164673;28;20045;-69
2021/08/21 05:52:26;;;;;;;3.85;2.75;;;34.80;79.00;;;;;;4163845;28;20138;-70
2021/08/21 05:54:30;;;;;;;5.50;2.80;;;35.00;77.90;;;;;;4163458;28;20064;-70
2021/08/21 05:56:42;;;;;;;3.85;2.90;;;35.00;77.30;;;;;;4147683;28;20445;-69
2021/08/21 05:58:46;;;;;;;2.95;2.55;;;35.10;77.40;;;;;;4162996;28;20049;-69
2021/08/21 06:00:51;;;;;;;4.32;2.53;;;35.00;78.20;;;;;;4163497;28;20570;-69
2021/08/21 06:02:56;;;;;;;4.28;2.78;;;34.90;77.90;;;;;;4157838;28;20525;-68
2021/08/21 06:05:00;;;;;;;6.55;2.97;;;34.80;78.40;;;;;;4160912;28;20080;-68
2021/08/21 06:07:05;;;;;;;7.07;2.67;;;34.70;78.20;;;;;;4157209;28;20855;-68
2021/08/21 06:09:10;;;;;;;3.33;2.75;;;34.60;78.30;;;;;;4160287;28;20045;-71
2021/08/21 06:11:14;;;;;;;6.55;2.83;;;34.70;79.40;;;;;;4154655;28;20128;-68
2021/08/21 06:13:19;;;;;;;7.35;3.22;;;34.60;78.40;;;;;;4157893;28;20037;-68
2021/08/21 06:15:24;;;;;;;3.42;2.45;;;34.50;79.40;;;;;;4151489;28;20069;-68
2021/08/21 06:17:28;;;;;;;4.15;2.80;;;34.50;78.70;;;;;;4158184;28;20049;-68
2021/08/21 06:19:33;;;;;;;4.80;3.33;;;34.40;78.50;;;;;;4158587;28;20080;-67
2021/08/21 06:21:37;;;;;;;7.25;2.50;;;34.40;79.70;;;;;;4158677;28;20135;-67
2021/08/21 06:23:42;;;;;;;6.75;3.40;;;34.50;80.30;;;;;;4162208;28;20116;-69
2021/08/21 06:25:47;;;;;;;6.75;3.17;;;34.50;80.60;;;;;;4160818;28;20065;-67
2021/08/21 06:27:52;;;;;;;4.85;3.10;;;34.50;80.00;;;;;;4158245;28;20045;-68
2021/08/21 06:29:57;;;;;;;9.32;3.70;;;34.60;79.80;;;;;;4154086;28;20536;-69
2021/08/21 06:32:03;;;;;;;4.47;3.40;;;34.60;79.70;;;;;;4155406;28;20049;-70
2021/08/21 06:34:08;;;;;;;7.55;3.38;;;34.50;79.80;;;;;;4154936;28;20049;-68
2021/08/21 06:36:59;;;;;;;6.85;3.33;;;34.50;80.00;;;;;;4178235;28;20892;-69
2021/08/21 06:39:04;;;;;;;8.82;4.07;;;34.60;81.80;;;;;;4176793;28;20045;-70
2021/08/21 06:41:08;;;;;;;6.13;3.55;;;34.60;82.40;;;;;;4177402;28;20053;-67
2021/08/21 06:43:12;;;;;;;5.53;3.70;;;34.50;81.90;;;;;;4175619;28;20501;-68
2021/08/21 06:45:29;;;;;;;7.72;3.60;;;34.50;82.60;;;;;;4176962;28;20339;-69
2021/08/21 06:47:34;;;;;;;5.18;3.38;;;34.50;82.70;;;;;;4178318;28;20053;-68
2021/08/21 06:49:39;;;;;;;7.28;3.15;;;34.50;82.40;;;;;;4178385;28;20045;-69
2021/08/21 06:51:43;;;;;;;4.57;3.15;;;34.60;82.80;;;;;;4177471;28;20048;-67
2021/08/21 06:53:48;;;;;;;7.50;3.22;;;34.80;81.90;;;;;;4173596;28;20041;-69
2021/08/21 06:55:52;;;;;;;5.15;3.50;;;35.10;81.10;;;;;;4174712;28;20037;-69
2021/08/21 06:57:57;;;;;;;4.63;3.42;;;35.30;81.70;;;;;;4175355;28;20068;-68
2021/08/21 07:00:01;;;;;;;5.55;3.22;;;35.40;80.00;;;;;;4174984;28;20853;-70
2021/08/21 07:02:08;;;;;;;6.88;3.10;;;35.60;78.30;;;;;;4174933;28;20049;-69
2021/08/21 07:04:13;;;;;;;4.38;3.15;;;35.60;79.00;;;;;;4174812;28;20068;-69
2021/08/21 07:06:17;;;;;;;4.65;3.50;;;35.70;79.00;;;;;;4154868;28;20715;-68
2021/08/21 07:08:22;;;;;;;5.18;3.08;;;35.80;77.70;;;;;;4159265;28;20568;-68
2021/08/21 07:10:27;;;;;;;4.15;2.53;;;35.80;78.40;;;;;;4173282;28;20106;-68
2021/08/21 07:12:31;;;;;;;7.85;3.00;;;35.90;78.60;;;;;;4174493;28;20132;-69
2021/08/21 07:14:36;;;;;;;6.05;3.08;;;35.60;79.10;;;;;;4174595;28;20136;-69
2021/08/21 07:16:40;;;;;;;4.20;3.15;;;35.40;79.30;;;;;;4170427;28;20059;-69
2021/08/21 07:18:45;;;;;;;4.82;3.42;;;35.20;79.60;;;;;;4171252;28;20087;-69
2021/08/21 07:20:49;;;;;;;3.70;2.90;;;35.10;79.70;;;;;;4170418;28;20033;-69
2021/08/21 07:22:55;;;;;;;3.42;2.70;;;35.00;79.60;;;;;;4173774;28;20680;-69
2021/08/21 07:25:00;;;;;;;5.97;3.03;;;34.90;79.90;;;;;;4170817;28;20045;-69
2021/08/21 07:27:04;;;;;;;4.97;3.22;;;34.90;79.40;;;;;;4173239;28;20056;-68
2021/08/21 07:29:09;;;;;;;6.22;2.90;;;34.90;79.10;;;;;;4174144;28;20108;-69
2021/08/21 07:31:13;;;;;;;7.22;3.15;;;35.00;79.50;;;;;;4173534;28;20059;-69
2021/08/21 07:33:17;;;;;;;4.40;2.88;;;34.90;79.80;;;;;;4169672;28;20631;-69
2021/08/21 07:35:22;;;;;;;4.50;3.15;;;34.90;80.00;;;;;;4168571;28;20049;-69
2021/08/21 07:37:27;;;;;;;4.80;3.17;;;34.80;79.50;;;;;;4172041;28;20060;-68
2021/08/21 07:39:31;;;;;;;5.40;3.08;;;34.80;79.30;;;;;;4170451;28;20136;-69
2021/08/21 07:41:36;;;;;;;3.78;2.88;;;34.80;79.20;;;;;;4172919;28;20530;-70
2021/08/21 07:43:40;;;;;;;5.13;3.50;;;34.80;79.60;;;;;;4166265;28;20128;-69
2021/08/21 07:45:46;;;;;;;7.38;3.53;;;34.80;80.70;;;;;;4166082;28;20508;-68
2021/08/21 07:48:09;;;;;;;5.45;3.33;;;34.80;80.50;;;;;;4156627;28;20072;-68
2021/08/21 07:50:32;;;;;;;5.60;3.03;;;34.80;80.40;;;;;;4154931;28;20053;-68
2021/08/21 08:16:05;;;;;;;6.43;3.42;;;34.80;79.40;;;;;;4189633;27;20997;-67
2021/08/21 08:18:28;;;;;;;4.55;2.60;;;35.20;80.40;;;;;;4184757;28;20063;-68
2021/08/21 08:20:35;;;;;;;4.68;3.35;;;35.20;80.10;;;;;;4179371;28;20045;-69
2021/08/21 08:22:40;;;;;;;6.55;2.85;;;35.30;79.10;;;;;;4177639;28;20478;-69
2021/08/21 08:24:44;;;;;;;3.60;3.17;;;35.40;78.90;;;;;;4179173;28;20080;-69
2021/08/21 08:26:48;;;;;;;5.82;3.40;;;35.30;78.40;;;;;;4182274;28;20486;-68
2021/08/21 08:28:53;;;;;;;9.30;5.05;;;35.40;78.20;;;;;;4191540;28;20033;-68
2021/08/21 08:30:57;;;;;;;11.75;6.85;;;35.40;78.60;;;;;;4187879;28;20131;-68
2021/08/21 08:33:02;;;;;;;10.85;5.80;;;35.40;78.70;;;;;;4162374;28;20507;-69
2021/08/21 08:35:07;;;;;;;5.47;3.63;;;35.40;78.70;;;;;;4187480;28;20036;-68
2021/08/21 08:37:12;;;;;;;7.68;4.00;;;35.30;77.40;;;;;;4184835;28;20037;-69
2021/08/21 08:39:17;;;;;;;4.95;3.38;;;35.20;78.20;;;;;;4170563;28;20045;-69
2021/08/21 08:41:22;;;;;;;7.13;3.28;;;35.20;78.30;;;;;;4199979;28;20060;-68
2021/08/21 08:43:28;;;;;;;4.45;3.05;;;35.10;78.20;;;;;;4185464;28;20122;-70
2021/08/21 08:45:33;;;;;;;4.45;3.25;;;35.20;78.00;;;;;;4182490;28;20056;-67
2021/08/21 08:47:38;;;;;;;5.35;3.10;;;35.20;78.10;;;;;;4183824;28;20053;-68
2021/08/21 08:49:46;;;;;;;5.35;3.03;;;35.10;77.90;;;;;;4200572;28;20052;-68
2021/08/21 08:51:50;;;;;;;5.45;2.88;;;35.00;78.80;;;;;;4191473;28;20547;-68
2021/08/21 08:53:54;;;;;;;5.05;2.90;;;35.00;78.60;;;;;;4181680;28;20095;-68
2021/08/21 08:55:59;;;;;;;6.95;3.03;;;35.00;79.30;;;;;;4182194;28;20053;-68
2021/08/21 08:58:04;;;;;;;4.18;3.03;;;35.00;79.70;;;;;;4182367;28;20548;-69
2021/08/21 09:00:10;;;;;;;6.28;2.88;;;34.90;79.90;;;;;;4189992;28;20084;-68
2021/08/21 09:02:29;;;;;;;3.10;2.30;;;34.90;80.20;;;;;;4187737;28;20035;-68
2021/08/21 09:04:35;;;;;;;9.80;2.28;;;34.70;77.70;;;;;;4167081;28;20048;-69
2021/08/21 09:06:40;;;;;;;3.33;1.92;;;34.50;76.30;;;;;;4185187;28;20045;-69
2021/08/21 09:08:44;;;;;;;4.53;1.95;;;34.10;76.40;;;;;;4184055;28;20067;-68
2021/08/21 09:10:49;;;;;;;4.82;2.22;;;33.80;77.90;;;;;;4198990;28;20053;-68
2021/08/21 09:13:12;;;;;;;4.07;2.30;;;33.70;79.30;;;;;;4199293;28;20059;-68
2021/08/21 09:15:25;;;;;;;5.55;2.78;;;33.50;80.60;;;;;;4196776;28;20399;-68
2021/08/21 09:17:30;;;;;;;6.60;2.17;;;33.60;81.00;;;;;;4169535;28;20076;-68
2021/08/21 09:19:34;;;;;;;5.25;2.25;;;33.60;81.20;;;;;;4172146;28;20060;-67
2021/08/21 09:21:39;;;;;;;4.65;2.20;;;33.60;80.10;;;;;;4170273;28;20060;-68
2021/08/21 09:23:44;;;;;;;4.55;2.28;;;33.30;76.10;;;;;;4163882;28;20557;-68
2021/08/21 09:26:08;;;;;;;5.75;2.00;;;33.20;75.50;;;;;;4171268;28;20454;-68
2021/08/21 09:28:20;;;;;;;4.57;2.00;;;33.10;76.20;;;;;;4182381;28;20053;-68
2021/08/21 09:30:27;;;;;;;9.82;1.95;;;32.80;75.30;;;;;;4176186;28;20059;-68
2021/08/21 09:32:31;;;;;;;5.10;1.88;;;32.80;75.40;;;;;;4179067;28;20137;-68
2021/08/21 09:34:38;;;;;;;5.22;2.03;;;32.70;75.70;;;;;;4186257;28;20079;-66
2021/08/21 09:36:46;;;;;;;6.25;1.40;;;32.70;76.30;;;;;;4167995;28;20129;-69
2021/08/21 09:38:51;;;;;;;6.60;1.63;;;32.60;77.30;;;;;;4172205;28;20054;-68
2021/08/21 09:41:00;;;;;;;5.15;1.55;;;32.50;80.00;;;;;;4171811;28;20034;-67
2021/08/21 09:43:07;;;;;;;3.70;1.70;;;32.30;82.00;;;;;;4147219;28;20053;-69
2021/08/21 09:45:11;;;;;;;2.78;1.00;;;32.10;81.80;;;;;;4168159;28;20061;-68
2021/08/21 09:47:18;;;;;;;3.67;1.20;;;31.80;83.40;;;;;;4169749;28;20443;-68
2021/08/21 09:49:22;;;;;;;2.00;0.95;;;31.30;84.40;;;;;;4178073;28;20045;-67
2021/08/21 09:51:36;;;;;;;4.10;1.38;;;31.20;85.50;;;;;;4170132;28;20081;-70
2021/08/21 09:53:41;;;;;;;2.70;1.20;;;31.00;87.80;;;;;;4172419;28;20050;-70
2021/08/21 09:55:45;;;;;;;6.50;1.90;;;31.20;87.20;;;;;;4177947;28;20041;-70
2021/08/21 09:58:10;;;;;;;4.65;2.13;;;31.40;87.60;;;;;;4184625;28;20041;-69
2021/08/21 10:00:15;;;;;;;4.43;1.70;;;31.40;87.60;;;;;;4183068;28;20130;-68
2021/08/21 10:02:19;;;;;;;7.75;1.73;;;31.40;88.30;;;;;;4184042;28;20044;-68
2021/08/21 10:04:26;;;;;;;5.78;1.60;;;31.40;89.40;;;;;;4183594;28;20053;-68
2021/08/21 10:06:31;;;;;;;5.10;1.83;;;31.40;88.00;;;;;;4186264;28;20041;-69
2021/08/21 10:08:35;;;;;;;2.55;1.42;;;31.40;87.80;;;;;;4186665;28;20049;-68
2021/08/21 10:10:49;;;;;;;2.95;1.60;;;31.20;90.10;;;;;;4189462;28;20478;-69
2021/08/21 10:12:58;;;;;;;2.90;1.17;;;31.10;90.60;;;;;;4130311;28;20076;-69
2021/08/21 10:15:03;;;;;;;4.45;1.38;;;31.10;90.80;;;;;;4183456;28;20402;-67
2021/08/21 10:17:08;;;;;;;4.03;1.40;;;31.10;92.20;;;;;;4195589;28;20128;-67
2021/08/21 10:19:13;;;;;;;3.92;1.27;;;31.00;92.70;;;;;;4184914;28;20045;-68
2021/08/21 10:21:17;;;;;;;4.07;1.33;;;31.20;92.50;;;;;;4186143;28;20049;-66
2021/08/21 10:23:28;;;;;;;4.78;1.63;;;31.20;92.40;;;;;;4163889;28;20076;-68
2021/08/21 10:25:33;;;;;;;4.30;1.73;;;31.30;92.60;;;;;;4187985;28;20135;-68
2021/08/21 10:27:54;;;;;;;4.10;1.45;;;31.20;92.80;;;;;;4188812;28;20049;-70
2021/08/21 10:30:03;;;;;;;3.88;1.52;;;31.20;92.60;;;;;;4173444;28;20487;-65
2021/08/21 10:32:28;;;;;;;7.03;1.67;;;31.10;92.70;;;;;;4174493;28;20041;-67
2021/08/21 10:34:52;;;;;;;4.78;1.55;;;31.10;92.60;;;;;;4171634;28;20042;-67
2021/08/21 10:36:58;;;;;;;7.40;1.65;;;31.20;92.60;;;;;;4170090;28;20053;-67
2021/08/21 10:39:32;;;;;;;5.10;2.22;;;31.20;93.10;;;;;;4170135;28;20059;-67
2021/08/21 10:41:37;;;;;;;5.45;2.53;;;31.30;93.20;;;;;;4174108;28;20045;-67
2021/08/21 10:43:45;;;;;;;7.30;3.60;;;31.20;94.30;;;;;;4170935;28;20064;-66
2021/08/21 10:45:51;;;;;;;6.72;2.30;;;31.10;94.50;;;;;;4171237;28;20045;-66
2021/08/21 10:47:55;;;;;;;8.50;3.97;;;31.10;94.60;;;;;;4173837;28;20042;-67
2021/08/21 10:50:13;;;;;;;7.90;6.15;;;31.10;94.50;;;;;;4178917;28;20143;-64
2021/08/21 10:52:42;;;;;;;9.80;4.55;;;31.00;94.40;;;;;;4174831;28;20041;-67
2021/08/21 10:54:46;;;;;;;9.68;4.18;;;31.00;94.90;;;;;;4174216;28;20049;-67
2021/08/21 10:56:52;;;;;;;19.17;9.85;;;31.00;95.20;;;;;;4172529;28;20088;-68
2021/08/21 10:58:56;;;;;;;15.35;10.20;;;31.10;95.20;;;;;;4171148;28;20037;-67
2021/08/21 11:01:02;;;;;;;12.43;6.68;;;31.00;95.10;;;;;;4171534;28;20042;-67
2021/08/21 11:03:10;;;;;;;8.27;4.63;;;31.10;95.10;;;;;;4170402;28;20450;-67
2021/08/21 11:05:47;;;;;;;12.18;4.32;;;31.10;95.30;;;;;;4172022;28;20168;-67
2021/08/21 11:08:01;;;;;;;6.63;3.47;;;31.10;95.70;;;;;;4173353;28;20049;-67
2021/08/21 11:10:19;;;;;;;5.80;2.70;;;31.00;95.10;;;;;;4180293;28;20453;-67
2021/08/21 11:12:36;;;;;;;4.07;2.15;;;31.00;95.20;;;;;;4181908;28;20057;-68
2021/08/21 11:14:42;;;;;;;3.88;2.13;;;31.00;95.60;;;;;;4180426;28;20041;-68
2021/08/21 11:16:52;;;;;;;3.88;2.10;;;31.00;95.20;;;;;;4180946;28;20498;-67
2021/08/21 11:18:57;;;;;;;4.05;1.98;;;30.90;95.50;;;;;;4182099;28;20300;-66
2021/08/21 11:21:33;;;;;;;5.35;2.22;;;30.90;95.40;;;;;;4182093;28;20040;-67
2021/08/21 11:23:51;;;;;;;5.45;3.20;;;30.90;95.50;;;;;;4153819;28;20448;-67
2021/08/21 11:25:56;;;;;;;5.85;3.55;;;30.90;96.10;;;;;;4175801;28;20135;-68
2021/08/21 11:28:29;;;;;;;7.28;3.63;;;30.80;97.00;;;;;;4138760;28;20088;-67
2021/08/21 11:31:06;;;;;;;4.15;2.30;;;30.80;97.10;;;;;;4142070;28;20137;-68
2021/08/21 11:33:12;;;;;;;6.22;2.33;;;30.80;96.60;;;;;;4141963;28;20042;-68